Time;durP1;ratioP1;P1;durP2;ratioP2;P2;SDS_P1;SDS_P2;PMS_P1;PMS_P2;Temp;Humidity;BMP_temperature;BMP_pressure;BME280_temperature;BME280_humidity;BME280_pressure;Samples;Min_cycle;Max_cycle;Signal;HPM_P1;HPM_P2
2021/11/26 05:01:47;;;;;;;126.77;28.80;;;1.80;99.70;;;;;;5069865;28;20180;-64
2021/11/26 05:04:14;;;;;;;135.50;29.83;;;1.70;99.70;;;;;;5072608;28;20200;-61
2021/11/26 05:06:41;;;;;;;130.37;27.20;;;1.60;99.70;;;;;;5072346;28;20451;-59
2021/11/26 05:09:09;;;;;;;136.43;28.80;;;1.60;99.70;;;;;;5073395;28;20445;-59
2021/11/26 05:11:37;;;;;;;131.67;28.10;;;1.80;99.70;;;;;;5073561;28;20454;-60
2021/11/26 05:14:04;;;;;;;133.60;29.60;;;1.80;99.70;;;;;;5055854;28;20455;-58
2021/11/26 05:16:32;;;;;;;132.77;28.10;;;1.80;99.70;;;;;;5052757;28;20487;-62
2021/11/26 05:19:00;;;;;;;132.37;27.63;;;1.80;99.70;;;;;;5053590;28;20448;-61
2021/11/26 05:21:27;;;;;;;128.13;27.87;;;1.70;99.70;;;;;;5053403;28;20447;-61
2021/11/26 05:23:54;;;;;;;133.47;30.40;;;1.70;99.70;;;;;;5068854;28;20455;-60
2021/11/26 05:26:21;;;;;;;145.20;29.20;;;1.80;99.70;;;;;;5072978;28;20533;-60
2021/11/26 05:28:48;;;;;;;130.23;32.70;;;1.80;99.70;;;;;;5073397;28;20450;-59
2021/11/26 05:31:15;;;;;;;128.53;29.60;;;2.10;99.70;;;;;;5065727;28;20448;-59
2021/11/26 05:33:41;;;;;;;127.30;26.77;;;2.10;99.70;;;;;;5053158;28;20443;-61
2021/11/26 05:36:10;;;;;;;128.10;29.10;;;1.90;99.70;;;;;;5052486;28;20479;-62
2021/11/26 05:38:36;;;;;;;131.83;29.53;;;1.90;99.70;;;;;;5053230;28;20444;-59
2021/11/26 05:41:03;;;;;;;134.37;27.90;;;1.90;99.70;;;;;;5057375;28;20443;-60
2021/11/26 05:43:30;;;;;;;131.47;27.87;;;1.80;99.70;;;;;;5072897;28;20818;-62
2021/11/26 05:45:57;;;;;;;138.70;29.67;;;1.80;99.70;;;;;;5072429;28;20985;-59
2021/11/26 05:48:24;;;;;;;132.27;28.40;;;1.70;99.70;;;;;;5072904;28;20823;-59
2021/11/26 05:50:51;;;;;;;140.47;31.57;;;1.60;99.70;;;;;;5059768;28;20445;-60
2021/11/26 05:53:19;;;;;;;130.33;28.80;;;1.70;99.70;;;;;;5072826;28;20443;-59
2021/11/26 05:55:45;;;;;;;137.13;34.23;;;1.70;99.70;;;;;;5072326;28;20857;-59
2021/11/26 05:58:12;;;;;;;127.67;30.37;;;1.70;99.70;;;;;;5072533;28;20474;-59
2021/11/26 06:00:39;;;;;;;132.87;29.03;;;2.30;99.70;;;;;;5070308;28;20469;-63
2021/11/26 06:03:06;;;;;;;121.40;27.30;;;2.00;99.70;;;;;;5052478;28;20446;-61
2021/11/26 06:05:33;;;;;;;130.10;28.90;;;1.90;99.70;;;;;;5052206;28;20467;-60
2021/11/26 06:08:00;;;;;;;135.30;29.40;;;1.80;99.70;;;;;;5051860;28;20443;-60
2021/11/26 06:10:28;;;;;;;124.17;29.57;;;1.80;99.70;;;;;;5052327;28;20440;-62
2021/11/26 06:12:55;;;;;;;132.90;28.47;;;2.40;99.70;;;;;;5072303;28;20454;-59
2021/11/26 06:15:23;;;;;;;120.90;26.33;;;2.40;99.70;;;;;;5071762;28;20469;-60
2021/11/26 06:17:51;;;;;;;138.03;29.67;;;2.10;99.70;;;;;;5071943;28;20478;-59
2021/11/26 06:20:18;;;;;;;127.67;29.80;;;1.90;99.70;;;;;;5072304;28;20473;-60
2021/11/26 06:22:46;;;;;;;119.93;30.67;;;1.80;99.70;;;;;;5052881;28;20463;-61
2021/11/26 06:25:15;;;;;;;130.37;29.60;;;2.20;99.70;;;;;;5051740;28;20527;-63
2021/11/26 06:27:44;;;;;;;125.70;27.83;;;2.50;99.70;;;;;;5051985;28;20435;-60
2021/11/26 06:30:12;;;;;;;133.87;30.87;;;2.60;99.70;;;;;;5061179;28;20855;-64
2021/11/26 06:32:40;;;;;;;127.40;27.70;;;2.60;99.70;;;;;;5071042;28;20454;-63
2021/11/26 06:35:07;;;;;;;131.80;29.53;;;2.70;99.70;;;;;;5071089;28;20471;-59
2021/11/26 06:37:35;;;;;;;126.63;29.20;;;3.00;99.70;;;;;;5071876;28;20489;-61
2021/11/26 06:40:02;;;;;;;119.87;29.07;;;2.70;99.70;;;;;;5071408;28;20450;-62
2021/11/26 06:42:29;;;;;;;136.60;31.17;;;2.50;99.70;;;;;;5071281;28;20851;-59
2021/11/26 06:44:57;;;;;;;119.90;28.10;;;2.60;99.70;;;;;;5071648;28;20443;-66
2021/11/26 06:47:24;;;;;;;128.50;28.63;;;2.50;99.70;;;;;;5071996;28;20470;-60
2021/11/26 06:49:51;;;;;;;131.37;31.07;;;2.40;99.70;;;;;;5071583;28;20443;-60
2021/11/26 06:52:18;;;;;;;127.90;28.87;;;2.40;99.70;;;;;;5056049;28;20444;-59
2021/11/26 06:54:45;;;;;;;120.50;30.33;;;2.30;99.70;;;;;;5050934;28;20812;-59
2021/11/26 06:57:11;;;;;;;120.77;29.20;;;2.20;99.70;;;;;;5051672;28;20490;-60
2021/11/26 06:59:38;;;;;;;126.90;31.50;;;2.20;99.70;;;;;;5102714;22;21025;-62
2021/11/26 07:02:07;;;;;;;131.67;31.87;;;2.10;99.70;;;;;;5089394;28;20444;-62
2021/11/26 07:04:34;;;;;;;130.13;34.40;;;2.30;99.70;;;;;;5091237;28;20791;-63
2021/11/26 07:07:02;;;;;;;128.50;32.90;;;2.20;99.70;;;;;;5088323;28;20459;-62
2021/11/26 07:09:28;;;;;;;141.37;34.77;;;2.10;99.70;;;;;;5085345;28;20521;-63
2021/11/26 07:11:55;;;;;;;137.53;33.57;;;2.00;99.70;;;;;;5088095;28;20461;-62
2021/11/26 07:14:22;;;;;;;130.23;31.10;;;1.80;99.70;;;;;;5086489;28;20964;-62
2021/11/26 07:16:49;;;;;;;136.93;32.17;;;1.90;99.70;;;;;;5090738;28;20477;-62
2021/11/26 07:19:17;;;;;;;145.60;34.20;;;1.80;99.70;;;;;;5090644;28;21051;-62
2021/11/26 07:21:44;;;;;;;135.57;32.77;;;1.80;99.70;;;;;;5080729;28;20807;-61
2021/11/26 07:24:11;;;;;;;131.07;33.80;;;1.90;99.70;;;;;;5084823;28;20531;-62
2021/11/26 07:26:38;;;;;;;142.60;33.50;;;2.30;99.70;;;;;;5082437;28;20459;-61
2021/11/26 07:29:05;;;;;;;130.70;34.50;;;2.20;99.70;;;;;;5085909;28;20846;-62
2021/11/26 07:31:31;;;;;;;135.30;33.27;;;2.20;99.70;;;;;;5087456;28;21060;-62
2021/11/26 07:33:58;;;;;;;137.10;36.03;;;2.10;99.70;;;;;;5090801;28;20456;-62
2021/11/26 07:36:28;;;;;;;137.17;37.53;;;2.20;99.70;;;;;;5085935;28;20457;-62
2021/11/26 07:38:55;;;;;;;134.13;36.63;;;2.20;99.70;;;;;;5090937;28;20561;-62
2021/11/26 07:41:23;;;;;;;131.80;34.40;;;2.00;99.70;;;;;;5090483;28;20881;-62
2021/11/26 07:43:50;;;;;;;137.37;36.77;;;2.20;99.70;;;;;;5091209;28;20481;-62
2021/11/26 07:46:17;;;;;;;135.83;36.50;;;2.20;99.70;;;;;;5090724;28;20438;-61
2021/11/26 07:48:44;;;;;;;137.53;36.40;;;2.40;99.70;;;;;;5091234;28;20461;-64
2021/11/26 07:51:10;;;;;;;143.67;35.33;;;2.40;99.70;;;;;;5084577;28;20523;-64
2021/11/26 07:53:39;;;;;;;134.67;32.43;;;2.20;99.70;;;;;;5083817;28;20460;-63
2021/11/26 07:56:06;;;;;;;132.20;31.83;;;2.20;99.70;;;;;;5081657;28;20453;-61
2021/11/26 07:58:32;;;;;;;130.30;32.97;;;2.10;99.70;;;;;;5087971;28;20500;-62
2021/11/26 08:00:59;;;;;;;133.93;33.53;;;2.20;99.70;;;;;;5089202;28;20453;-63
2021/11/26 08:03:26;;;;;;;139.60;33.60;;;2.50;99.70;;;;;;5088192;28;20450;-64
2021/11/26 08:05:53;;;;;;;127.67;31.83;;;2.40;99.70;;;;;;5094179;28;20441;-63
2021/11/26 08:08:20;;;;;;;143.60;32.87;;;2.50;99.70;;;;;;5093183;28;20458;-62
2021/11/26 08:10:48;;;;;;;135.00;33.33;;;2.50;99.70;;;;;;5075115;28;20942;-62
2021/11/26 08:13:15;;;;;;;145.97;34.30;;;2.40;99.70;;;;;;5074503;28;20853;-60
2021/11/26 08:15:42;;;;;;;142.60;34.43;;;2.50;99.70;;;;;;5074051;28;20452;-63
2021/11/26 08:18:09;;;;;;;141.13;34.27;;;2.70;99.70;;;;;;5074269;28;20489;-63
2021/11/26 08:20:37;;;;;;;136.30;34.10;;;2.70;99.70;;;;;;5075492;28;20500;-62
2021/11/26 08:23:05;;;;;;;163.43;37.10;;;2.40;99.70;;;;;;5074386;28;20453;-63
2021/11/26 08:25:32;;;;;;;144.50;35.47;;;2.30;99.70;;;;;;5073896;28;20804;-63
2021/11/26 08:28:00;;;;;;;139.50;34.97;;;2.60;99.70;;;;;;5074354;28;20445;-63
2021/11/26 08:30:27;;;;;;;139.47;34.17;;;2.30;99.70;;;;;;5075005;28;20443;-62
2021/11/26 08:32:54;;;;;;;144.30;36.47;;;2.20;99.70;;;;;;5074188;28;20457;-62
2021/11/26 08:35:21;;;;;;;141.07;35.77;;;2.20;99.70;;;;;;5073912;28;20815;-63
2021/11/26 08:37:49;;;;;;;135.77;33.93;;;2.40;99.70;;;;;;5073899;28;20561;-63
2021/11/26 08:40:16;;;;;;;127.20;32.17;;;2.70;99.70;;;;;;5074003;28;20827;-62
2021/11/26 08:42:43;;;;;;;128.77;31.40;;;2.90;99.70;;;;;;5074085;28;20498;-62
2021/11/26 08:45:12;;;;;;;139.83;34.33;;;2.90;99.70;;;;;;5073546;28;20454;-63
2021/11/26 08:47:41;;;;;;;130.60;30.63;;;2.70;99.70;;;;;;5073966;28;20822;-64
2021/11/26 08:50:12;;;;;;;132.17;32.97;;;2.60;99.70;;;;;;5073816;28;20446;-62
2021/11/26 08:52:39;;;;;;;146.57;33.30;;;2.40;99.70;;;;;;5074021;28;20446;-62
2021/11/26 08:55:11;;;;;;;140.03;33.87;;;2.40;99.70;;;;;;5072597;28;20446;-63
2021/11/26 08:57:39;;;;;;;144.03;36.10;;;2.20;99.70;;;;;;5073504;28;21072;-62
2021/11/26 09:00:07;;;;;;;142.43;34.93;;;2.30;99.70;;;;;;5073322;28;21009;-62
2021/11/26 09:02:36;;;;;;;143.63;33.00;;;2.70;99.70;;;;;;5073416;28;20458;-62
2021/11/26 09:05:03;;;;;;;137.87;32.40;;;2.90;99.70;;;;;;5084609;28;20449;-63
2021/11/26 09:07:30;;;;;;;134.63;34.00;;;2.80;99.70;;;;;;5093711;28;20438;-63
2021/11/26 09:09:57;;;;;;;134.20;32.63;;;2.90;99.70;;;;;;5093869;28;20470;-63
2021/11/26 09:12:25;;;;;;;144.00;33.53;;;2.90;99.70;;;;;;5094015;28;20445;-60
2021/11/26 09:14:52;;;;;;;139.20;36.40;;;2.70;99.70;;;;;;5089220;28;20481;-60
2021/11/26 09:17:19;;;;;;;147.03;34.70;;;2.60;99.70;;;;;;5090433;28;20516;-61
2021/11/26 09:19:48;;;;;;;140.97;32.83;;;2.60;99.70;;;;;;5092231;28;20553;-62
2021/11/26 09:22:15;;;;;;;133.60;32.67;;;2.90;99.70;;;;;;5088237;28;20445;-61
2021/11/26 09:24:41;;;;;;;136.23;32.23;;;2.90;99.70;;;;;;5090213;28;20454;-64
2021/11/26 09:27:08;;;;;;;136.67;32.40;;;2.80;99.70;;;;;;5093141;28;20484;-61
2021/11/26 09:29:35;;;;;;;140.33;31.60;;;2.90;99.70;;;;;;5092373;28;20469;-63
2021/11/26 09:32:02;;;;;;;133.30;32.87;;;2.80;99.70;;;;;;5093243;28;20453;-61
2021/11/26 09:34:29;;;;;;;135.47;34.03;;;2.90;99.70;;;;;;5091320;28;20495;-61
2021/11/26 09:36:57;;;;;;;134.87;32.33;;;3.10;99.70;;;;;;5093114;28;20839;-60
2021/11/26 09:39:25;;;;;;;128.63;33.43;;;2.90;99.70;;;;;;5093202;28;20478;-62
2021/11/26 09:41:52;;;;;;;138.40;31.77;;;3.10;99.70;;;;;;5092015;28;20536;-62
2021/11/26 09:44:19;;;;;;;133.93;29.90;;;2.90;99.70;;;;;;5091457;28;20438;-62
2021/11/26 09:46:48;;;;;;;132.23;29.47;;;2.90;99.70;;;;;;5092892;28;20443;-62
2021/11/26 09:49:16;;;;;;;133.93;31.27;;;2.80;99.70;;;;;;5092947;28;20470;-62
2021/11/26 09:51:43;;;;;;;139.23;29.57;;;3.30;99.70;;;;;;5092769;28;20437;-59
2021/11/26 09:54:11;;;;;;;128.50;30.10;;;3.30;99.70;;;;;;5092222;28;20957;-61
2021/11/26 09:56:38;;;;;;;131.60;30.50;;;3.20;99.70;;;;;;5092467;28;20828;-62
2021/11/26 09:59:05;;;;;;;119.33;29.30;;;3.20;99.70;;;;;;5092166;28;20489;-62
2021/11/26 10:01:32;;;;;;;125.57;29.83;;;3.10;99.70;;;;;;5092281;28;20450;-63
2021/11/26 10:04:00;;;;;;;125.47;28.60;;;3.50;99.70;;;;;;5091648;28;20449;-63
2021/11/26 10:06:36;;;;;;;123.73;27.00;;;3.40;99.70;;;;;;5090191;28;20442;-62
2021/11/26 10:09:06;;;;;;;122.03;27.70;;;3.20;99.70;;;;;;5090701;28;20496;-62
2021/11/26 10:11:38;;;;;;;126.23;25.20;;;3.50;99.70;;;;;;5089436;28;20484;-62
2021/11/26 10:14:21;;;;;;;120.10;25.90;;;3.20;99.70;;;;;;5092693;28;20518;-61
2021/11/26 10:16:52;;;;;;;122.97;27.87;;;3.70;99.70;;;;;;5092571;28;20449;-62
2021/11/26 10:19:29;;;;;;;122.33;28.20;;;3.80;99.70;;;;;;5092138;28;21126;-62
2021/11/26 10:21:56;;;;;;;121.27;29.17;;;3.50;99.70;;;;;;5092365;28;20457;-62
2021/11/26 10:24:23;;;;;;;127.80;29.50;;;3.60;99.70;;;;;;5092178;28;20453;-59
2021/11/26 10:26:54;;;;;;;121.93;28.40;;;3.30;99.70;;;;;;5091715;28;20454;-61
2021/11/26 10:29:36;;;;;;;123.73;29.47;;;3.10;99.70;;;;;;5092309;28;20466;-62
2021/11/26 10:32:06;;;;;;;122.60;28.80;;;3.30;99.70;;;;;;5092197;28;20450;-60
2021/11/26 10:34:33;;;;;;;117.37;28.57;;;3.60;99.70;;;;;;5091865;28;20452;-62
2021/11/26 10:37:00;;;;;;;124.57;29.47;;;3.60;99.70;;;;;;5091903;28;20442;-62
2021/11/26 10:39:27;;;;;;;121.87;29.10;;;4.00;99.70;;;;;;5091917;28;20486;-63
2021/11/26 10:41:59;;;;;;;123.10;30.80;;;3.70;99.70;;;;;;5091941;28;20437;-63
2021/11/26 10:44:36;;;;;;;114.83;27.30;;;3.50;99.70;;;;;;5091706;28;20948;-60
2021/11/26 10:47:10;;;;;;;117.17;29.97;;;3.60;99.70;;;;;;5091931;28;20442;-64
2021/11/26 11:00:26;;;;;;;118.67;28.57;;;3.10;99.70;;;;;;5088208;28;20628;-62
2021/11/26 11:02:58;;;;;;;121.60;29.90;;;3.10;99.70;;;;;;5091184;28;20453;-61
2021/11/26 11:05:29;;;;;;;120.57;30.10;;;2.90;99.70;;;;;;5091378;28;20914;-62
2021/11/26 11:07:57;;;;;;;114.53;27.80;;;3.10;99.70;;;;;;5091392;28;20442;-65
2021/11/26 11:10:26;;;;;;;123.70;28.07;;;3.60;99.70;;;;;;5091272;28;20984;-64
2021/11/26 11:12:57;;;;;;;124.43;31.83;;;3.90;99.70;;;;;;5091442;28;20450;-62
2021/11/26 11:15:24;;;;;;;116.93;26.77;;;3.70;99.70;;;;;;5091347;28;20448;-62
2021/11/26 11:17:51;;;;;;;113.43;28.97;;;3.70;99.70;;;;;;5091210;28;20811;-62
2021/11/26 11:20:19;;;;;;;112.33;30.23;;;3.40;99.70;;;;;;5091470;28;20870;-62
2021/11/26 11:22:47;;;;;;;104.00;25.80;;;3.50;99.70;;;;;;5091465;28;20621;-63
2021/11/26 11:25:17;;;;;;;107.43;25.70;;;4.00;99.70;;;;;;5090998;28;20433;-62
2021/11/26 11:27:43;;;;;;;107.40;26.27;;;3.80;99.70;;;;;;5091030;28;20824;-62
2021/11/26 11:30:12;;;;;;;112.60;28.10;;;3.70;99.70;;;;;;5091309;28;20955;-62
2021/11/26 11:32:40;;;;;;;107.53;27.33;;;3.70;99.70;;;;;;5091289;28;20452;-62
2021/11/26 11:35:08;;;;;;;109.70;27.70;;;3.60;99.70;;;;;;5090977;28;20434;-62
2021/11/26 11:37:35;;;;;;;103.33;27.10;;;3.50;99.70;;;;;;5091267;28;20955;-62
2021/11/26 11:40:07;;;;;;;101.83;27.87;;;3.60;99.70;;;;;;5095521;28;20482;-63
2021/11/26 11:42:36;;;;;;;110.57;26.70;;;3.70;99.70;;;;;;5095547;28;20453;-62
2021/11/26 11:45:10;;;;;;;98.50;25.10;;;3.90;99.70;;;;;;5095042;28;20442;-63
2021/11/26 11:47:43;;;;;;;101.50;26.40;;;4.00;99.70;;;;;;5095297;28;20440;-63
2021/11/26 11:50:14;;;;;;;102.10;25.80;;;4.00;99.70;;;;;;5095404;28;21211;-62
2021/11/26 11:52:46;;;;;;;101.30;25.50;;;3.90;99.70;;;;;;5095338;28;20932;-64
2021/11/26 11:55:36;;;;;;;98.97;24.33;;;4.00;99.70;;;;;;5094253;28;20846;-64
2021/11/26 11:58:13;;;;;;;106.57;26.83;;;4.10;99.70;;;;;;5088356;28;20576;-62
2021/11/26 12:00:43;;;;;;;101.57;25.20;;;4.10;99.70;;;;;;5082768;28;20448;-63
2021/11/26 12:03:14;;;;;;;103.57;25.03;;;4.00;99.70;;;;;;5074410;28;20454;-63
2021/11/26 12:05:42;;;;;;;94.67;25.40;;;3.80;99.70;;;;;;5074529;28;20448;-62
2021/11/26 12:08:13;;;;;;;93.37;24.90;;;3.80;99.70;;;;;;5074451;28;20466;-62
2021/11/26 12:10:45;;;;;;;105.40;26.13;;;3.80;99.70;;;;;;5074384;28;20449;-62
2021/11/26 12:13:21;;;;;;;98.47;26.40;;;3.60;99.70;;;;;;5074513;28;20453;-62
2021/11/26 12:15:48;;;;;;;91.70;23.80;;;3.60;99.70;;;;;;5074233;28;20525;-62
2021/11/26 12:18:17;;;;;;;99.37;24.73;;;3.80;99.70;;;;;;5074363;28;20474;-63
2021/11/26 12:20:48;;;;;;;91.30;24.20;;;3.70;99.70;;;;;;5074658;28;20899;-63
2021/11/26 12:23:20;;;;;;;101.40;24.80;;;3.80;99.70;;;;;;5074424;28;20497;-62
2021/11/26 12:26:04;;;;;;;93.13;24.00;;;3.70;99.70;;;;;;5074183;28;20455;-62
2021/11/26 12:28:41;;;;;;;97.30;25.03;;;3.60;99.70;;;;;;5074421;28;21042;-62
2021/11/26 12:31:11;;;;;;;90.87;25.50;;;3.60;99.70;;;;;;5074294;28;20453;-63
2021/11/26 12:33:40;;;;;;;91.93;24.10;;;3.60;99.70;;;;;;5074315;28;20438;-64
2021/11/26 12:36:09;;;;;;;94.90;26.10;;;3.80;99.70;;;;;;5073783;28;20451;-62
2021/11/26 12:38:42;;;;;;;103.03;26.63;;;3.90;99.70;;;;;;5073923;28;20486;-62
2021/11/26 12:41:09;;;;;;;97.70;25.57;;;3.90;99.70;;;;;;5074002;28;20450;-63
2021/11/26 12:43:44;;;;;;;92.87;25.50;;;3.80;99.70;;;;;;5073968;28;20439;-62
2021/11/26 12:46:23;;;;;;;98.03;24.90;;;3.90;99.70;;;;;;5073640;28;20528;-63
2021/11/26 12:49:09;;;;;;;98.07;24.80;;;3.70;99.70;;;;;;5073711;28;20458;-63
2021/11/26 12:51:36;;;;;;;92.43;23.30;;;3.50;99.70;;;;;;5074146;28;20803;-62
2021/11/26 12:54:05;;;;;;;102.20;27.33;;;3.50;99.70;;;;;;5073065;28;20439;-63
2021/11/26 12:56:32;;;;;;;93.77;23.50;;;3.60;99.70;;;;;;5089184;28;20454;-62
2021/11/26 12:58:59;;;;;;;89.50;23.77;;;4.10;99.70;;;;;;5093056;28;20496;-63
2021/11/26 13:01:30;;;;;;;88.13;23.10;;;4.00;99.70;;;;;;5119713;22;20490;-67
2021/11/26 13:03:59;;;;;;;97.77;25.67;;;4.10;99.70;;;;;;5071464;28;20443;-67
2021/11/26 13:06:29;;;;;;;89.47;23.37;;;4.00;99.70;;;;;;5072718;28;20442;-67
2021/11/26 13:09:01;;;;;;;95.93;24.07;;;3.90;99.70;;;;;;5070546;28;20443;-67
2021/11/26 13:11:28;;;;;;;94.10;22.87;;;4.00;99.70;;;;;;5073568;28;20859;-66
2021/11/26 13:14:03;;;;;;;96.13;23.70;;;4.00;99.70;;;;;;5071421;28;20455;-66
2021/11/26 13:16:30;;;;;;;95.63;23.03;;;4.00;99.70;;;;;;5068221;28;20464;-67
2021/11/26 13:18:58;;;;;;;101.63;26.00;;;4.10;99.70;;;;;;5068835;28;20478;-67
2021/11/26 13:21:25;;;;;;;92.23;23.50;;;4.00;99.70;;;;;;5073024;28;20833;-67
2021/11/26 13:23:52;;;;;;;96.30;23.27;;;4.10;99.70;;;;;;5072600;28;20443;-66
2021/11/26 13:26:19;;;;;;;95.93;25.80;;;4.10;99.70;;;;;;5072780;28;20438;-66
2021/11/26 13:28:50;;;;;;;96.37;23.50;;;4.10;99.70;;;;;;5066565;28;20823;-66
2021/11/26 13:31:18;;;;;;;100.50;24.73;;;4.00;99.70;;;;;;5072902;28;20911;-66
2021/11/26 13:33:48;;;;;;;102.73;26.83;;;4.00;99.70;;;;;;5072803;28;20466;-67
2021/11/26 13:36:18;;;;;;;95.97;24.40;;;4.10;99.70;;;;;;5071286;28;20968;-67
2021/11/26 13:38:47;;;;;;;98.53;25.90;;;3.90;99.70;;;;;;5072897;28;20491;-66
2021/11/26 13:41:17;;;;;;;102.67;25.63;;;4.10;99.70;;;;;;5068869;28;20475;-67
2021/11/26 13:43:48;;;;;;;94.50;25.50;;;4.00;99.70;;;;;;5069037;28;20447;-66
2021/11/26 13:46:22;;;;;;;95.87;25.13;;;3.90;99.70;;;;;;5071251;28;20887;-66
2021/11/26 13:48:51;;;;;;;102.73;24.90;;;3.80;99.70;;;;;;5071819;28;20450;-66
2021/11/26 13:51:22;;;;;;;99.83;25.00;;;3.90;99.70;;;;;;5062405;28;20459;-67
2021/11/26 13:53:51;;;;;;;95.77;24.50;;;3.90;99.70;;;;;;5071611;28;20435;-66
2021/11/26 13:56:19;;;;;;;84.43;21.30;;;4.10;99.70;;;;;;5070777;28;20439;-67
2021/11/26 13:58:53;;;;;;;91.80;25.77;;;4.10;99.70;;;;;;5069052;28;20482;-66
2021/11/26 14:01:25;;;;;;;91.67;24.70;;;4.30;99.70;;;;;;5070171;28;20474;-67
2021/11/26 14:03:58;;;;;;;90.97;24.10;;;4.30;99.70;;;;;;5069748;28;20451;-67
2021/11/26 14:06:27;;;;;;;94.03;25.43;;;4.40;99.70;;;;;;5067449;28;21009;-67
2021/11/26 14:08:55;;;;;;;82.50;22.10;;;4.20;99.70;;;;;;5069550;28;20443;-67
2021/11/26 14:11:30;;;;;;;90.97;23.80;;;4.20;99.70;;;;;;5088630;28;20462;-66
2021/11/26 14:13:57;;;;;;;89.60;22.23;;;4.30;99.70;;;;;;5074579;28;20446;-67
2021/11/26 14:16:23;;;;;;;85.83;21.63;;;4.50;99.70;;;;;;5069765;28;20453;-67
2021/11/26 14:18:52;;;;;;;85.00;21.13;;;4.50;99.70;;;;;;5070648;28;20454;-67
2021/11/26 14:21:19;;;;;;;80.07;20.90;;;4.60;99.70;;;;;;5067148;28;20467;-66
2021/11/26 14:23:55;;;;;;;78.90;20.77;;;4.50;99.70;;;;;;5072058;28;20818;-67
2021/11/26 14:26:22;;;;;;;77.50;20.40;;;4.50;99.70;;;;;;5071346;28;20451;-67
2021/11/26 14:28:50;;;;;;;82.73;21.20;;;4.60;99.70;;;;;;5071165;28;20443;-67
2021/11/26 14:31:16;;;;;;;74.90;20.57;;;4.40;99.70;;;;;;5071043;28;20977;-67
2021/11/26 14:33:43;;;;;;;76.00;20.10;;;4.50;99.70;;;;;;5071792;28;20443;-67
2021/11/26 14:36:12;;;;;;;80.20;20.57;;;4.60;99.70;;;;;;5059769;28;20450;-66
2021/11/26 14:38:46;;;;;;;72.03;19.93;;;4.40;99.70;;;;;;5066416;28;20453;-66
2021/11/26 14:41:19;;;;;;;84.23;21.03;;;4.40;99.70;;;;;;5063641;28;20461;-67
2021/11/26 14:43:47;;;;;;;84.57;21.93;;;4.30;99.70;;;;;;5064827;28;20440;-67
2021/11/26 14:46:16;;;;;;;88.80;22.10;;;4.20;99.70;;;;;;5059709;28;20585;-66
2021/11/26 14:48:48;;;;;;;77.10;20.00;;;4.20;99.70;;;;;;5061342;28;21017;-67
2021/11/26 14:51:23;;;;;;;78.53;22.23;;;4.30;99.70;;;;;;5062744;28;20497;-67
2021/11/26 14:53:51;;;;;;;83.97;20.53;;;4.10;99.70;;;;;;5059411;28;20478;-66
2021/11/26 14:56:20;;;;;;;78.27;21.00;;;4.00;99.70;;;;;;5061522;28;20440;-67
2021/11/26 14:58:48;;;;;;;81.27;21.60;;;4.00;99.70;;;;;;5060355;28;20646;-67
2021/11/26 15:01:19;;;;;;;78.13;20.10;;;4.00;99.70;;;;;;5060367;28;20478;-67
2021/11/26 15:03:45;;;;;;;77.27;20.50;;;3.90;99.70;;;;;;5060431;28;20440;-66
2021/11/26 15:06:12;;;;;;;73.03;19.40;;;4.10;99.70;;;;;;5060708;28;20445;-67
2021/11/26 15:08:39;;;;;;;76.53;20.10;;;4.00;99.70;;;;;;5051335;28;20444;-67
2021/11/26 15:11:07;;;;;;;73.70;18.40;;;3.90;99.70;;;;;;5063889;28;20466;-67
2021/11/26 15:13:36;;;;;;;73.37;18.37;;;3.90;99.70;;;;;;5069901;28;20501;-67
2021/11/26 15:16:03;;;;;;;70.47;18.57;;;4.00;99.70;;;;;;5070494;28;20465;-67
2021/11/26 15:18:30;;;;;;;71.73;19.43;;;4.10;99.70;;;;;;5068142;28;20447;-67
2021/11/26 15:20:57;;;;;;;69.70;17.67;;;4.00;99.70;;;;;;5058846;28;20478;-68
2021/11/26 15:23:24;;;;;;;71.80;17.60;;;4.10;99.70;;;;;;5060767;28;20446;-67
2021/11/26 15:25:51;;;;;;;68.10;17.83;;;4.00;99.70;;;;;;5059218;28;20435;-68
2021/11/26 15:28:18;;;;;;;69.03;18.23;;;4.10;99.70;;;;;;5060118;28;20821;-67
2021/11/26 15:30:46;;;;;;;68.40;17.77;;;4.20;99.70;;;;;;5063784;28;20948;-66
2021/11/26 15:33:13;;;;;;;69.67;18.30;;;4.20;99.70;;;;;;5062685;28;20446;-67
2021/11/26 15:35:41;;;;;;;64.83;16.70;;;4.30;99.70;;;;;;5059042;28;20436;-67
2021/11/26 15:38:08;;;;;;;76.60;18.47;;;4.20;99.70;;;;;;5064773;28;20466;-67
2021/11/26 15:40:35;;;;;;;68.07;17.13;;;4.00;99.70;;;;;;5059048;28;20482;-67
2021/11/26 15:43:02;;;;;;;66.87;16.47;;;4.20;99.70;;;;;;5057845;28;20447;-67
2021/11/26 15:45:29;;;;;;;69.67;16.80;;;4.10;99.70;;;;;;5058635;28;20439;-67
2021/11/26 15:47:58;;;;;;;68.73;17.53;;;3.90;99.70;;;;;;5057821;28;20448;-67
2021/11/26 15:50:26;;;;;;;70.20;15.67;;;3.90;99.70;;;;;;5059715;28;20472;-67
2021/11/26 15:52:54;;;;;;;63.57;15.30;;;3.80;99.70;;;;;;5057246;28;20466;-67
2021/11/26 15:55:21;;;;;;;66.87;15.70;;;4.00;99.70;;;;;;5050299;28;20835;-67
2021/11/26 15:57:48;;;;;;;66.37;16.50;;;4.00;99.70;;;;;;5050900;28;20443;-67
2021/11/26 16:00:15;;;;;;;66.13;15.90;;;4.00;99.70;;;;;;5050964;28;20506;-67
2021/11/26 16:02:43;;;;;;;70.07;16.50;;;4.10;99.70;;;;;;5050739;28;20479;-67
2021/11/26 16:05:13;;;;;;;69.00;15.17;;;3.90;99.70;;;;;;5050507;28;20946;-67
2021/11/26 16:07:40;;;;;;;63.30;13.47;;;3.90;99.70;;;;;;5050682;28;20455;-67
2021/11/26 16:10:09;;;;;;;63.77;12.80;;;3.80;99.70;;;;;;5050799;28;20436;-67
2021/11/26 16:12:36;;;;;;;65.07;14.93;;;4.00;99.70;;;;;;5050895;28;20498;-68
2021/11/26 16:15:04;;;;;;;64.90;16.03;;;3.90;99.70;;;;;;5050839;28;20475;-67
2021/11/26 16:17:31;;;;;;;63.57;15.60;;;3.90;99.70;;;;;;5050617;28;20446;-67
2021/11/26 16:19:58;;;;;;;66.40;16.00;;;4.00;99.70;;;;;;5050503;28;20476;-67
2021/11/26 16:22:26;;;;;;;64.70;15.53;;;3.90;99.70;;;;;;5050794;28;20896;-67
2021/11/26 16:24:53;;;;;;;64.67;14.87;;;3.80;99.70;;;;;;5052478;28;20447;-66
2021/11/26 16:27:21;;;;;;;66.17;15.87;;;3.60;99.70;;;;;;5054427;28;20447;-66
2021/11/26 16:29:48;;;;;;;68.73;17.20;;;3.50;99.70;;;;;;5054863;28;20554;-66
2021/11/26 16:32:19;;;;;;;68.03;16.27;;;3.50;99.70;;;;;;5055773;28;20458;-67
2021/11/26 16:34:48;;;;;;;66.57;16.33;;;3.40;99.70;;;;;;5054503;28;20444;-67
2021/11/26 16:37:17;;;;;;;69.17;17.33;;;3.40;99.70;;;;;;5057265;28;20887;-67
2021/11/26 16:39:46;;;;;;;68.60;16.07;;;3.40;99.70;;;;;;5074250;28;20479;-66
2021/11/26 16:42:14;;;;;;;70.10;17.77;;;3.40;99.70;;;;;;5070583;28;20993;-67
2021/11/26 16:44:42;;;;;;;68.53;16.53;;;3.40;99.70;;;;;;5053833;28;20456;-67
2021/11/26 16:47:10;;;;;;;71.77;18.80;;;3.40;99.70;;;;;;5053905;28;20446;-67
2021/11/26 16:49:38;;;;;;;69.37;16.93;;;3.40;99.70;;;;;;5053203;28;20454;-67
2021/11/26 16:52:08;;;;;;;65.23;17.40;;;3.40;99.70;;;;;;5053485;28;20471;-67
2021/11/26 16:54:38;;;;;;;67.33;16.10;;;3.50;99.70;;;;;;5053604;28;20456;-67
2021/11/26 16:57:07;;;;;;;67.33;17.30;;;3.60;99.70;;;;;;5053791;28;20454;-67
2021/11/26 16:59:33;;;;;;;72.73;19.47;;;3.60;99.70;;;;;;5053872;28;20454;-67
2021/11/26 17:02:01;;;;;;;68.07;15.13;;;3.60;99.70;;;;;;5063350;28;20477;-67
2021/11/26 17:04:28;;;;;;;71.23;17.90;;;3.60;99.70;;;;;;5073447;28;21019;-66
2021/11/26 17:06:55;;;;;;;67.30;16.43;;;3.80;99.70;;;;;;5070692;28;20553;-67
2021/11/26 17:09:22;;;;;;;70.77;16.20;;;3.50;99.70;;;;;;5066714;28;20546;-67
2021/11/26 17:11:49;;;;;;;66.50;17.40;;;3.50;99.70;;;;;;5055565;28;20460;-67
2021/11/26 17:14:18;;;;;;;70.33;15.93;;;3.70;99.70;;;;;;5072898;28;20447;-67
2021/11/26 17:16:45;;;;;;;62.60;15.60;;;3.70;99.70;;;;;;5072809;28;20521;-67
2021/11/26 17:19:13;;;;;;;68.90;16.47;;;3.60;99.70;;;;;;5072599;28;20952;-67
2021/11/26 17:21:41;;;;;;;69.23;17.50;;;3.60;99.70;;;;;;5072946;28;20486;-67
2021/11/26 17:24:08;;;;;;;71.87;18.03;;;3.40;99.70;;;;;;5073213;28;20450;-67
2021/11/26 17:26:35;;;;;;;70.77;17.67;;;3.50;99.70;;;;;;5072457;28;20450;-67
2021/11/26 17:29:02;;;;;;;67.33;17.93;;;3.50;99.70;;;;;;5072963;28;20450;-67
2021/11/26 17:31:30;;;;;;;70.07;17.20;;;3.40;99.70;;;;;;5073123;28;20458;-67
2021/11/26 17:33:56;;;;;;;72.00;17.60;;;3.40;99.70;;;;;;5073027;28;20446;-67
2021/11/26 17:36:24;;;;;;;74.80;19.07;;;3.20;99.70;;;;;;5071609;28;20811;-67
2021/11/26 17:38:52;;;;;;;75.20;18.63;;;3.20;99.70;;;;;;5072919;28;20445;-68
2021/11/26 17:41:20;;;;;;;78.37;18.50;;;3.20;99.70;;;;;;5067419;28;20489;-67
2021/11/26 17:43:47;;;;;;;70.13;18.00;;;3.10;99.70;;;;;;5069839;28;20443;-67
2021/11/26 17:46:14;;;;;;;85.10;20.43;;;3.10;99.70;;;;;;5071791;28;20836;-66
2021/11/26 17:48:42;;;;;;;85.30;22.27;;;3.10;99.70;;;;;;5070835;28;20442;-67